sensor_id;sensor_type;location;lat;lon;timestamp;pressure;altitude;pressure_sealevel;temperature;humidity
33859;BME280;20156;47.486;12.074;2023-09-19T00:00:23;94921.53;;;14.69;100.00
33859;BME280;20156;47.486;12.074;2023-09-19T00:02:56;94929.63;;;14.68;100.00
33859;BME280;20156;47.486;12.074;2023-09-19T00:05:23;94939.00;;;14.64;100.00
33859;BME280;20156;47.486;12.074;2023-09-19T00:07:50;94930.97;;;14.70;100.00
33859;BME280;20156;47.486;12.074;2023-09-19T00:10:16;94925.81;;;14.75;100.00
33859;BME280;20156;47.486;12.074;2023-09-19T00:12:45;94942.78;;;14.73;100.00
33859;BME280;20156;47.486;12.074;2023-09-19T00:15:11;94948.66;;;14.63;100.00
33859;BME280;20156;47.486;12.074;2023-09-19T00:17:36;94953.13;;;14.63;100.00
33859;BME280;20156;47.486;12.074;2023-09-19T00:20:03;94965.06;;;14.59;100.00
33859;BME280;20156;47.486;12.074;2023-09-19T00:22:40;94952.41;;;14.67;100.00
33859;BME280;20156;47.486;12.074;2023-09-19T00:25:06;94954.06;;;14.73;100.00
33859;BME280;20156;47.486;12.074;2023-09-19T00:27:31;94957.63;;;14.67;100.00
33859;BME280;20156;47.486;12.074;2023-09-19T00:29:58;94964.41;;;14.52;100.00
33859;BME280;20156;47.486;12.074;2023-09-19T00:32:24;94977.25;;;14.41;100.00
33859;BME280;20156;47.486;12.074;2023-09-19T00:34:49;94972.50;;;14.50;100.00
33859;BME280;20156;47.486;12.074;2023-09-19T00:37:15;94975.09;;;14.62;100.00
33859;BME280;20156;47.486;12.074;2023-09-19T00:39:43;94978.84;;;14.54;100.00
33859;BME280;20156;47.486;12.074;2023-09-19T00:42:08;94976.91;;;14.61;100.00
33859;BME280;20156;47.486;12.074;2023-09-19T00:44:33;94969.38;;;14.65;100.00
33859;BME280;20156;47.486;12.074;2023-09-19T00:47:00;94968.59;;;14.64;100.00
33859;BME280;20156;47.486;12.074;2023-09-19T00:49:27;94970.53;;;14.57;100.00
33859;BME280;20156;47.486;12.074;2023-09-19T00:51:52;94963.81;;;14.61;100.00
33859;BME280;20156;47.486;12.074;2023-09-19T00:54:18;94975.22;;;14.55;100.00
33859;BME280;20156;47.486;12.074;2023-09-19T00:56:45;94969.19;;;14.55;100.00
33859;BME280;20156;47.486;12.074;2023-09-19T00:59:11;94977.59;;;14.57;100.00
33859;BME280;20156;47.486;12.074;2023-09-19T01:01:37;94981.00;;;14.57;100.00
33859;BME280;20156;47.486;12.074;2023-09-19T01:04:05;94976.28;;;14.71;100.00
33859;BME280;20156;47.486;12.074;2023-09-19T01:06:31;94985.09;;;14.65;100.00
33859;BME280;20156;47.486;12.074;2023-09-19T01:08:56;94999.47;;;14.51;100.00
33859;BME280;20156;47.486;12.074;2023-09-19T01:11:33;95001.53;;;14.49;100.00
33859;BME280;20156;47.486;12.074;2023-09-19T01:16:47;95011.28;;;14.65;100.00
33859;BME280;20156;47.486;12.074;2023-09-19T01:22:21;95022.78;;;14.64;100.00
33859;BME280;20156;47.486;12.074;2023-09-19T01:30:40;95049.78;;;14.53;100.00
33859;BME280;20156;47.486;12.074;2023-09-19T01:33:09;95054.53;;;14.56;100.00
33859;BME280;20156;47.486;12.074;2023-09-19T01:35:38;95062.16;;;14.57;100.00
33859;BME280;20156;47.486;12.074;2023-09-19T01:38:07;95070.47;;;14.54;100.00
33859;BME280;20156;47.486;12.074;2023-09-19T01:40:48;95074.47;;;14.57;100.00
33859;BME280;20156;47.486;12.074;2023-09-19T01:43:27;95079.22;;;14.60;100.00
33859;BME280;20156;47.486;12.074;2023-09-19T01:48:49;95080.25;;;14.59;100.00
33859;BME280;20156;47.486;12.074;2023-09-19T01:54:18;95088.34;;;14.57;100.00
33859;BME280;20156;47.486;12.074;2023-09-19T01:56:59;95078.31;;;14.66;100.00
33859;BME280;20156;47.486;12.074;2023-09-19T01:59:35;95076.72;;;14.65;100.00
33859;BME280;20156;47.486;12.074;2023-09-19T02:02:04;95081.28;;;14.58;100.00
33859;BME280;20156;47.486;12.074;2023-09-19T02:04:33;95084.13;;;14.56;100.00
33859;BME280;20156;47.486;12.074;2023-09-19T02:06:59;95090.94;;;14.69;100.00
33859;BME280;20156;47.486;12.074;2023-09-19T02:09:26;95092.75;;;14.68;100.00
33859;BME280;20156;47.486;12.074;2023-09-19T02:11:51;95105.84;;;14.68;100.00
33859;BME280;20156;47.486;12.074;2023-09-19T02:14:16;95099.03;;;14.67;100.00
33859;BME280;20156;47.486;12.074;2023-09-19T02:16:42;95111.09;;;14.57;100.00
33859;BME280;20156;47.486;12.074;2023-09-19T02:19:07;95123.63;;;14.55;100.00
33859;BME280;20156;47.486;12.074;2023-09-19T02:21:33;95130.47;;;14.56;100.00
33859;BME280;20156;47.486;12.074;2023-09-19T02:23:58;95129.47;;;14.45;100.00
33859;BME280;20156;47.486;12.074;2023-09-19T02:26:24;95128.44;;;14.46;100.00
33859;BME280;20156;47.486;12.074;2023-09-19T02:28:50;95134.56;;;14.52;100.00
33859;BME280;20156;47.486;12.074;2023-09-19T02:31:15;95141.38;;;14.41;100.00
33859;BME280;20156;47.486;12.074;2023-09-19T02:33:41;95134.81;;;14.50;100.00
33859;BME280;20156;47.486;12.074;2023-09-19T02:36:07;95138.13;;;14.46;100.00
33859;BME280;20156;47.486;12.074;2023-09-19T02:38:34;95136.16;;;14.53;100.00
33859;BME280;20156;47.486;12.074;2023-09-19T02:40:59;95149.78;;;14.43;100.00
33859;BME280;20156;47.486;12.074;2023-09-19T02:43:25;95152.78;;;14.47;100.00
33859;BME280;20156;47.486;12.074;2023-09-19T02:45:51;95154.50;;;14.64;100.00
33859;BME280;20156;47.486;12.074;2023-09-19T02:48:18;95157.91;;;14.65;100.00
33859;BME280;20156;47.486;12.074;2023-09-19T02:50:44;95169.03;;;14.60;100.00
33859;BME280;20156;47.486;12.074;2023-09-19T02:53:10;95161.53;;;14.64;100.00
33859;BME280;20156;47.486;12.074;2023-09-19T02:55:38;95165.53;;;14.66;100.00
33859;BME280;20156;47.486;12.074;2023-09-19T02:58:06;95160.53;;;14.65;100.00
33859;BME280;20156;47.486;12.074;2023-09-19T03:00:33;95160.63;;;14.58;100.00
33859;BME280;20156;47.486;12.074;2023-09-19T03:03:00;95163.81;;;14.60;100.00
33859;BME280;20156;47.486;12.074;2023-09-19T03:05:27;95160.75;;;14.63;100.00
33859;BME280;20156;47.486;12.074;2023-09-19T03:07:56;95169.41;;;14.64;100.00
33859;BME280;20156;47.486;12.074;2023-09-19T03:10:22;95179.75;;;14.59;100.00
33859;BME280;20156;47.486;12.074;2023-09-19T03:12:48;95164.59;;;14.61;100.00
33859;BME280;20156;47.486;12.074;2023-09-19T03:15:15;95163.25;;;14.58;100.00
33859;BME280;20156;47.486;12.074;2023-09-19T03:17:47;95166.41;;;14.60;100.00
33859;BME280;20156;47.486;12.074;2023-09-19T03:20:14;95167.81;;;14.63;100.00
33859;BME280;20156;47.486;12.074;2023-09-19T03:22:43;95152.66;;;14.65;100.00
33859;BME280;20156;47.486;12.074;2023-09-19T03:25:08;95156.88;;;14.66;100.00
33859;BME280;20156;47.486;12.074;2023-09-19T03:27:35;95155.84;;;14.67;100.00
33859;BME280;20156;47.486;12.074;2023-09-19T03:30:01;95156.88;;;14.66;100.00
33859;BME280;20156;47.486;12.074;2023-09-19T03:32:30;95151.16;;;14.69;100.00
33859;BME280;20156;47.486;12.074;2023-09-19T03:34:56;95153.31;;;14.72;100.00
33859;BME280;20156;47.486;12.074;2023-09-19T03:37:21;95162.56;;;14.63;100.00
33859;BME280;20156;47.486;12.074;2023-09-19T03:39:46;95160.28;;;14.66;100.00
33859;BME280;20156;47.486;12.074;2023-09-19T03:42:12;95160.53;;;14.65;100.00
33859;BME280;20156;47.486;12.074;2023-09-19T03:44:37;95162.34;;;14.64;100.00
33859;BME280;20156;47.486;12.074;2023-09-19T03:47:03;95168.47;;;14.70;100.00
33859;BME280;20156;47.486;12.074;2023-09-19T03:49:30;95173.84;;;14.63;100.00
33859;BME280;20156;47.486;12.074;2023-09-19T03:51:55;95177.25;;;14.52;100.00
33859;BME280;20156;47.486;12.074;2023-09-19T03:54:21;95178.97;;;14.47;100.00
33859;BME280;20156;47.486;12.074;2023-09-19T03:56:46;95181.94;;;14.50;100.00
33859;BME280;20156;47.486;12.074;2023-09-19T03:59:12;95178.75;;;14.48;100.00
33859;BME280;20156;47.486;12.074;2023-09-19T04:01:37;95180.91;;;14.51;100.00
33859;BME280;20156;47.486;12.074;2023-09-19T04:04:03;95187.50;;;14.54;100.00
33859;BME280;20156;47.486;12.074;2023-09-19T04:06:34;95180.66;;;14.53;100.00
33859;BME280;20156;47.486;12.074;2023-09-19T04:09:00;95184.66;;;14.55;100.00
33859;BME280;20156;47.486;12.074;2023-09-19T04:11:26;95176.09;;;14.60;100.00
33859;BME280;20156;47.486;12.074;2023-09-19T04:13:52;95169.50;;;14.57;100.00
33859;BME280;20156;47.486;12.074;2023-09-19T04:16:17;95174.53;;;14.47;100.00
33859;BME280;20156;47.486;12.074;2023-09-19T04:18:43;95174.59;;;14.40;100.00
33859;BME280;20156;47.486;12.074;2023-09-19T04:21:08;95185.28;;;14.39;100.00
33859;BME280;20156;47.486;12.074;2023-09-19T04:23:34;95190.66;;;14.32;100.00
33859;BME280;20156;47.486;12.074;2023-09-19T04:26:00;95197.34;;;14.40;100.00
33859;BME280;20156;47.486;12.074;2023-09-19T04:28:25;95193.84;;;14.34;100.00
33859;BME280;20156;47.486;12.074;2023-09-19T04:30:53;95199.19;;;14.39;100.00
33859;BME280;20156;47.486;12.074;2023-09-19T04:33:18;95210.38;;;14.47;100.00
33859;BME280;20156;47.486;12.074;2023-09-19T04:35:44;95218.47;;;14.45;100.00
33859;BME280;20156;47.486;12.074;2023-09-19T04:38:09;95220.84;;;14.47;100.00
33859;BME280;20156;47.486;12.074;2023-09-19T04:40:34;95222.91;;;14.44;100.00
33859;BME280;20156;47.486;12.074;2023-09-19T04:43:00;95229.56;;;14.40;100.00
33859;BME280;20156;47.486;12.074;2023-09-19T04:45:27;95223.69;;;14.45;100.00
33859;BME280;20156;47.486;12.074;2023-09-19T04:47:53;95224.09;;;14.42;100.00
33859;BME280;20156;47.486;12.074;2023-09-19T04:50:19;95235.53;;;14.48;100.00
33859;BME280;20156;47.486;12.074;2023-09-19T04:52:50;95251.69;;;14.44;100.00
33859;BME280;20156;47.486;12.074;2023-09-19T04:55:20;95252.59;;;14.50;100.00
33859;BME280;20156;47.486;12.074;2023-09-19T04:57:50;95244.88;;;14.55;100.00
33859;BME280;20156;47.486;12.074;2023-09-19T05:00:24;95254.53;;;14.55;100.00
33859;BME280;20156;47.486;12.074;2023-09-19T05:02:54;95270.13;;;14.50;100.00
33859;BME280;20156;47.486;12.074;2023-09-19T05:05:21;95274.13;;;14.52;100.00
33859;BME280;20156;47.486;12.074;2023-09-19T05:07:48;95271.28;;;14.54;100.00
33859;BME280;20156;47.486;12.074;2023-09-19T05:10:14;95265.81;;;14.55;100.00
33859;BME280;20156;47.486;12.074;2023-09-19T05:12:40;95260.91;;;14.59;100.00
33859;BME280;20156;47.486;12.074;2023-09-19T05:15:06;95266.03;;;14.54;100.00
33859;BME280;20156;47.486;12.074;2023-09-19T05:17:33;95270.47;;;14.53;100.00
33859;BME280;20156;47.486;12.074;2023-09-19T05:19:59;95275.81;;;14.47;100.00
33859;BME280;20156;47.486;12.074;2023-09-19T05:22:29;95289.38;;;14.55;100.00
33859;BME280;20156;47.486;12.074;2023-09-19T05:24:54;95296.13;;;14.63;100.00
33859;BME280;20156;47.486;12.074;2023-09-19T05:27:19;95293.59;;;14.68;100.00
33859;BME280;20156;47.486;12.074;2023-09-19T05:29:46;95289.28;;;14.73;100.00
33859;BME280;20156;47.486;12.074;2023-09-19T05:32:11;95292.69;;;14.74;100.00
33859;BME280;20156;47.486;12.074;2023-09-19T05:34:37;95296.91;;;14.75;100.00
33859;BME280;20156;47.486;12.074;2023-09-19T05:37:03;95292.81;;;14.67;100.00
33859;BME280;20156;47.486;12.074;2023-09-19T05:39:32;95286.31;;;14.70;100.00
33859;BME280;20156;47.486;12.074;2023-09-19T05:41:57;95298.16;;;14.72;100.00
33859;BME280;20156;47.486;12.074;2023-09-19T05:44:23;95296.47;;;14.78;100.00
33859;BME280;20156;47.486;12.074;2023-09-19T05:46:48;95299.66;;;14.80;100.00
33859;BME280;20156;47.486;12.074;2023-09-19T05:49:14;95301.59;;;14.85;100.00
33859;BME280;20156;47.486;12.074;2023-09-19T05:51:41;95304.53;;;14.88;100.00
33859;BME280;20156;47.486;12.074;2023-09-19T05:54:06;95301.69;;;14.90;100.00
33859;BME280;20156;47.486;12.074;2023-09-19T05:56:31;95305.44;;;14.94;100.00
33859;BME280;20156;47.486;12.074;2023-09-19T05:58:57;95304.88;;;14.92;100.00
33859;BME280;20156;47.486;12.074;2023-09-19T06:01:22;95305.25;;;14.95;100.00
33859;BME280;20156;47.486;12.074;2023-09-19T06:03:48;95302.41;;;14.97;100.00
33859;BME280;20156;47.486;12.074;2023-09-19T06:06:14;95308.28;;;14.92;100.00
33859;BME280;20156;47.486;12.074;2023-09-19T06:08:39;95313.91;;;14.96;100.00
33859;BME280;20156;47.486;12.074;2023-09-19T06:11:04;95312.41;;;14.88;100.00
33859;BME280;20156;47.486;12.074;2023-09-19T06:13:32;95322.09;;;14.88;100.00
33859;BME280;20156;47.486;12.074;2023-09-19T06:15:58;95321.41;;;14.81;100.00
33859;BME280;20156;47.486;12.074;2023-09-19T06:18:25;95315.81;;;14.89;100.00
33859;BME280;20156;47.486;12.074;2023-09-19T06:20:51;95315.34;;;14.92;100.00
33859;BME280;20156;47.486;12.074;2023-09-19T06:23:17;95305.56;;;15.11;100.00
33859;BME280;20156;47.486;12.074;2023-09-19T06:25:45;95288.09;;;15.28;100.00
33859;BME280;20156;47.486;12.074;2023-09-19T06:28:10;95289.94;;;15.39;100.00
33859;BME280;20156;47.486;12.074;2023-09-19T06:30:38;95291.75;;;15.39;100.00
33859;BME280;20156;47.486;12.074;2023-09-19T06:33:06;95305.00;;;15.32;100.00
33859;BME280;20156;47.486;12.074;2023-09-19T06:35:33;95311.03;;;15.32;100.00
33859;BME280;20156;47.486;12.074;2023-09-19T06:38:03;95304.63;;;15.40;100.00
33859;BME280;20156;47.486;12.074;2023-09-19T06:40:29;95298.44;;;15.58;100.00
33859;BME280;20156;47.486;12.074;2023-09-19T06:42:56;95294.31;;;15.74;100.00
33859;BME280;20156;47.486;12.074;2023-09-19T06:45:22;95287.69;;;15.83;100.00
33859;BME280;20156;47.486;12.074;2023-09-19T06:47:49;95297.63;;;15.69;100.00
33859;BME280;20156;47.486;12.074;2023-09-19T06:50:19;95296.34;;;15.83;100.00
33859;BME280;20156;47.486;12.074;2023-09-19T06:52:47;95297.78;;;15.91;100.00
33859;BME280;20156;47.486;12.074;2023-09-19T06:55:15;95284.31;;;15.99;100.00
33859;BME280;20156;47.486;12.074;2023-09-19T06:57:44;95286.94;;;15.99;100.00
33859;BME280;20156;47.486;12.074;2023-09-19T07:00:10;95285.63;;;16.13;100.00
33859;BME280;20156;47.486;12.074;2023-09-19T07:05:30;95287.94;;;16.27;100.00
33859;BME280;20156;47.486;12.074;2023-09-19T07:07:57;95272.72;;;16.74;100.00
33859;BME280;20156;47.486;12.074;2023-09-19T07:10:24;95261.72;;;16.77;100.00
33859;BME280;20156;47.486;12.074;2023-09-19T07:13:04;95275.97;;;16.64;100.00
33859;BME280;20156;47.486;12.074;2023-09-19T07:15:32;95271.84;;;16.68;100.00
33859;BME280;20156;47.486;12.074;2023-09-19T07:18:02;95264.34;;;16.77;100.00
33859;BME280;20156;47.486;12.074;2023-09-19T07:20:27;95251.06;;;16.83;100.00
33859;BME280;20156;47.486;12.074;2023-09-19T07:22:56;95259.47;;;16.86;100.00
33859;BME280;20156;47.486;12.074;2023-09-19T07:25:25;95254.38;;;16.79;100.00
33859;BME280;20156;47.486;12.074;2023-09-19T07:27:51;95239.81;;;16.88;100.00
33859;BME280;20156;47.486;12.074;2023-09-19T07:30:16;95233.75;;;16.88;100.00
33859;BME280;20156;47.486;12.074;2023-09-19T07:32:42;95236.72;;;16.74;100.00
33859;BME280;20156;47.486;12.074;2023-09-19T07:35:08;95207.28;;;16.94;100.00
33859;BME280;20156;47.486;12.074;2023-09-19T07:37:33;95210.38;;;17.08;100.00
33859;BME280;20156;47.486;12.074;2023-09-19T07:40:00;95202.69;;;17.23;100.00
33859;BME280;20156;47.486;12.074;2023-09-19T07:42:33;95199.91;;;17.13;100.00
33859;BME280;20156;47.486;12.074;2023-09-19T07:45:01;95197.28;;;17.13;100.00
33859;BME280;20156;47.486;12.074;2023-09-19T07:47:26;95191.75;;;17.31;100.00
33859;BME280;20156;47.486;12.074;2023-09-19T07:49:52;95186.28;;;17.38;100.00
33859;BME280;20156;47.486;12.074;2023-09-19T07:52:18;95191.41;;;17.28;100.00
33859;BME280;20156;47.486;12.074;2023-09-19T07:54:44;95186.69;;;17.30;100.00
33859;BME280;20156;47.486;12.074;2023-09-19T07:57:10;95190.19;;;17.35;100.00
33859;BME280;20156;47.486;12.074;2023-09-19T07:59:37;95177.06;;;17.62;100.00
33859;BME280;20156;47.486;12.074;2023-09-19T08:02:04;95212.19;;;17.29;100.00
33859;BME280;20156;47.486;12.074;2023-09-19T08:04:30;95184.38;;;17.55;100.00
33859;BME280;20156;47.486;12.074;2023-09-19T08:06:58;95179.94;;;17.61;100.00
33859;BME280;20156;47.486;12.074;2023-09-19T08:09:24;95189.66;;;17.60;100.00
33859;BME280;20156;47.486;12.074;2023-09-19T08:11:49;95176.34;;;17.67;100.00
33859;BME280;20156;47.486;12.074;2023-09-19T08:14:16;95166.59;;;17.94;100.00
33859;BME280;20156;47.486;12.074;2023-09-19T08:16:41;95171.06;;;17.94;100.00
33859;BME280;20156;47.486;12.074;2023-09-19T08:19:09;95166.97;;;17.76;100.00
33859;BME280;20156;47.486;12.074;2023-09-19T08:21:35;95158.88;;;17.83;100.00
33859;BME280;20156;47.486;12.074;2023-09-19T08:24:01;95139.28;;;18.00;100.00
33859;BME280;20156;47.486;12.074;2023-09-19T08:26:29;95123.03;;;18.14;100.00
33859;BME280;20156;47.486;12.074;2023-09-19T08:28:56;95137.41;;;17.96;100.00
33859;BME280;20156;47.486;12.074;2023-09-19T08:31:21;95112.47;;;18.09;100.00
33859;BME280;20156;47.486;12.074;2023-09-19T08:33:47;95124.97;;;18.23;100.00
33859;BME280;20156;47.486;12.074;2023-09-19T08:36:14;95144.47;;;18.27;100.00
33859;BME280;20156;47.486;12.074;2023-09-19T08:38:40;95143.19;;;18.30;100.00
33859;BME280;20156;47.486;12.074;2023-09-19T08:41:06;95150.38;;;18.40;100.00
33859;BME280;20156;47.486;12.074;2023-09-19T08:43:33;95180.53;;;18.22;100.00
33859;BME280;20156;47.486;12.074;2023-09-19T08:48:31;95151.94;;;18.36;100.00
33859;BME280;20156;47.486;12.074;2023-09-19T08:51:18;95118.72;;;18.72;100.00
33859;BME280;20156;47.486;12.074;2023-09-19T08:56:18;95168.44;;;19.10;100.00
33859;BME280;20156;47.486;12.074;2023-09-19T08:58:50;95241.56;;;19.20;100.00
33859;BME280;20156;47.486;12.074;2023-09-19T09:01:18;95288.81;;;19.27;100.00
33859;BME280;20156;47.486;12.074;2023-09-19T09:03:52;95324.31;;;19.09;100.00
33859;BME280;20156;47.486;12.074;2023-09-19T09:06:19;95350.25;;;19.17;100.00
33859;BME280;20156;47.486;12.074;2023-09-19T09:08:46;95354.75;;;19.64;100.00
33859;BME280;20156;47.486;12.074;2023-09-19T09:11:12;95425.34;;;19.46;100.00
33859;BME280;20156;47.486;12.074;2023-09-19T09:13:39;95437.19;;;19.71;100.00
33859;BME280;20156;47.486;12.074;2023-09-19T09:16:07;95410.63;;;19.98;100.00
33859;BME280;20156;47.486;12.074;2023-09-19T09:18:33;95423.09;;;20.02;100.00
33859;BME280;20156;47.486;12.074;2023-09-19T09:20:58;95428.28;;;19.82;100.00
33859;BME280;20156;47.486;12.074;2023-09-19T09:23:24;95436.66;;;19.69;100.00
33859;BME280;20156;47.486;12.074;2023-09-19T09:25:55;95437.47;;;19.74;100.00
33859;BME280;20156;47.486;12.074;2023-09-19T09:28:26;95452.59;;;19.89;100.00
33859;BME280;20156;47.486;12.074;2023-09-19T09:30:53;95451.97;;;19.72;100.00
33859;BME280;20156;47.486;12.074;2023-09-19T09:33:19;95459.03;;;20.08;100.00
33859;BME280;20156;47.486;12.074;2023-09-19T09:35:49;95455.09;;;20.79;100.00
33859;BME280;20156;47.486;12.074;2023-09-19T09:38:21;95477.31;;;20.67;100.00
33859;BME280;20156;47.486;12.074;2023-09-19T09:40:51;95466.44;;;20.64;100.00
33859;BME280;20156;47.486;12.074;2023-09-19T09:43:48;95445.84;;;20.08;100.00
33859;BME280;20156;47.486;12.074;2023-09-19T09:46:16;95437.84;;;19.98;100.00
33859;BME280;20156;47.486;12.074;2023-09-19T09:48:55;95398.22;;;20.51;100.00
33859;BME280;20156;47.486;12.074;2023-09-19T09:51:50;95399.88;;;21.08;100.00
33859;BME280;20156;47.486;12.074;2023-09-19T09:54:24;95418.13;;;21.04;100.00
33859;BME280;20156;47.486;12.074;2023-09-19T09:56:54;95433.41;;;20.77;100.00
33859;BME280;20156;47.486;12.074;2023-09-19T09:59:22;95436.13;;;21.07;100.00
33859;BME280;20156;47.486;12.074;2023-09-19T10:01:50;95423.72;;;21.28;100.00
33859;BME280;20156;47.486;12.074;2023-09-19T10:04:28;95436.38;;;21.16;100.00
33859;BME280;20156;47.486;12.074;2023-09-19T10:07:01;95457.44;;;20.55;100.00
33859;BME280;20156;47.486;12.074;2023-09-19T10:09:30;95454.81;;;20.65;100.00
33859;BME280;20156;47.486;12.074;2023-09-19T10:12:10;95446.75;;;20.34;100.00
33859;BME280;20156;47.486;12.074;2023-09-19T10:14:38;95434.44;;;20.50;100.00
33859;BME280;20156;47.486;12.074;2023-09-19T10:17:10;95421.47;;;20.59;100.00
33859;BME280;20156;47.486;12.074;2023-09-19T10:19:57;95391.91;;;20.72;100.00
33859;BME280;20156;47.486;12.074;2023-09-19T10:22:26;95423.06;;;20.50;100.00
33859;BME280;20156;47.486;12.074;2023-09-19T10:24:53;95429.63;;;20.42;100.00
33859;BME280;20156;47.486;12.074;2023-09-19T10:27:22;95433.31;;;20.41;100.00
33859;BME280;20156;47.486;12.074;2023-09-19T10:29:52;95422.19;;;20.34;100.00
33859;BME280;20156;47.486;12.074;2023-09-19T10:32:22;95439.63;;;20.40;100.00
33859;BME280;20156;47.486;12.074;2023-09-19T10:34:49;95446.56;;;20.46;100.00
33859;BME280;20156;47.486;12.074;2023-09-19T10:37:16;95433.38;;;20.51;100.00
33859;BME280;20156;47.486;12.074;2023-09-19T10:39:46;95432.88;;;20.69;100.00
33859;BME280;20156;47.486;12.074;2023-09-19T10:42:16;95433.19;;;20.93;100.00
33859;BME280;20156;47.486;12.074;2023-09-19T10:44:45;95445.59;;;20.78;100.00
33859;BME280;20156;47.486;12.074;2023-09-19T10:47:12;95419.16;;;20.93;100.00
33859;BME280;20156;47.486;12.074;2023-09-19T10:49:45;95419.16;;;20.98;100.00
33859;BME280;20156;47.486;12.074;2023-09-19T10:52:13;95410.97;;;21.05;100.00
33859;BME280;20156;47.486;12.074;2023-09-19T10:54:46;95391.16;;;21.02;100.00
33859;BME280;20156;47.486;12.074;2023-09-19T10:57:19;95392.19;;;20.91;100.00
33859;BME280;20156;47.486;12.074;2023-09-19T11:00:05;95369.44;;;20.95;100.00
33859;BME280;20156;47.486;12.074;2023-09-19T11:06:00;95368.38;;;21.06;100.00
33859;BME280;20156;47.486;12.074;2023-09-19T11:08:27;95369.44;;;20.90;100.00
33859;BME280;20156;47.486;12.074;2023-09-19T11:10:52;95363.34;;;21.10;100.00
33859;BME280;20156;47.486;12.074;2023-09-19T11:24:28;95345.34;;;21.32;100.00
33859;BME280;20156;47.486;12.074;2023-09-19T11:27:22;95340.84;;;21.22;100.00
33859;BME280;20156;47.486;12.074;2023-09-19T11:30:26;95335.28;;;21.14;100.00
33859;BME280;20156;47.486;12.074;2023-09-19T11:33:24;95298.50;;;21.22;100.00
33859;BME280;20156;47.486;12.074;2023-09-19T11:43:46;95320.44;;;21.53;100.00
33859;BME280;20156;47.486;12.074;2023-09-19T11:46:12;95309.16;;;21.92;100.00
33859;BME280;20156;47.486;12.074;2023-09-19T11:48:42;95302.09;;;22.71;100.00
33859;BME280;20156;47.486;12.074;2023-09-19T11:51:11;95354.56;;;23.18;100.00
33859;BME280;20156;47.486;12.074;2023-09-19T11:53:45;95321.59;;;23.24;100.00
33859;BME280;20156;47.486;12.074;2023-09-19T11:56:15;95342.44;;;23.07;100.00
33859;BME280;20156;47.486;12.074;2023-09-19T11:58:41;95366.94;;;22.49;100.00
33859;BME280;20156;47.486;12.074;2023-09-19T12:01:07;95367.50;;;22.51;100.00
33859;BME280;20156;47.486;12.074;2023-09-19T12:03:42;95342.09;;;23.19;100.00
33859;BME280;20156;47.486;12.074;2023-09-19T12:06:14;95340.91;;;23.59;100.00
33859;BME280;20156;47.486;12.074;2023-09-19T12:08:41;95333.16;;;23.33;100.00
33859;BME280;20156;47.486;12.074;2023-09-19T12:11:12;95335.13;;;23.23;100.00
33859;BME280;20156;47.486;12.074;2023-09-19T12:13:42;95325.81;;;23.25;100.00
33859;BME280;20156;47.486;12.074;2023-09-19T12:16:13;95340.41;;;23.81;100.00
33859;BME280;20156;47.486;12.074;2023-09-19T12:18:45;95372.75;;;23.35;100.00
33859;BME280;20156;47.486;12.074;2023-09-19T12:21:28;95358.19;;;23.85;100.00
33859;BME280;20156;47.486;12.074;2023-09-19T12:24:07;95361.38;;;24.06;100.00
33859;BME280;20156;47.486;12.074;2023-09-19T12:26:45;95357.31;;;23.90;100.00
33859;BME280;20156;47.486;12.074;2023-09-19T12:29:20;95354.56;;;23.76;100.00
33859;BME280;20156;47.486;12.074;2023-09-19T12:31:54;95342.06;;;23.77;100.00
33859;BME280;20156;47.486;12.074;2023-09-19T12:34:32;95342.81;;;23.53;100.00
33859;BME280;20156;47.486;12.074;2023-09-19T12:39:41;95328.03;;;23.95;100.00
33859;BME280;20156;47.486;12.074;2023-09-19T12:42:11;95316.16;;;24.30;100.00
33859;BME280;20156;47.486;12.074;2023-09-19T12:44:45;95316.13;;;24.11;100.00
33859;BME280;20156;47.486;12.074;2023-09-19T12:47:16;95319.63;;;24.07;100.00
33859;BME280;20156;47.486;12.074;2023-09-19T12:52:38;95322.91;;;23.51;100.00
33859;BME280;20156;47.486;12.074;2023-09-19T12:55:04;95317.03;;;23.54;100.00
33859;BME280;20156;47.486;12.074;2023-09-19T12:57:32;95316.84;;;23.45;100.00
33859;BME280;20156;47.486;12.074;2023-09-19T13:00:03;95293.19;;;23.96;100.00
33859;BME280;20156;47.486;12.074;2023-09-19T13:02:32;95283.00;;;24.22;100.00
33859;BME280;20156;47.486;12.074;2023-09-19T13:04:58;95284.06;;;24.03;100.00
33859;BME280;20156;47.486;12.074;2023-09-19T13:07:42;95287.34;;;24.37;100.00
33859;BME280;20156;47.486;12.074;2023-09-19T13:10:12;95289.81;;;24.28;100.00
33859;BME280;20156;47.486;12.074;2023-09-19T13:12:41;95287.13;;;23.43;100.00
33859;BME280;20156;47.486;12.074;2023-09-19T13:15:10;95302.13;;;23.00;100.00
33859;BME280;20156;47.486;12.074;2023-09-19T13:17:46;95296.47;;;23.11;100.00
33859;BME280;20156;47.486;12.074;2023-09-19T13:20:26;95301.69;;;23.22;100.00
33859;BME280;20156;47.486;12.074;2023-09-19T13:22:57;95289.22;;;23.22;100.00
33859;BME280;20156;47.486;12.074;2023-09-19T13:25:31;95289.63;;;23.82;100.00
33859;BME280;20156;47.486;12.074;2023-09-19T13:27:58;95278.34;;;24.33;100.00
33859;BME280;20156;47.486;12.074;2023-09-19T13:30:28;95258.47;;;24.96;100.00
33859;BME280;20156;47.486;12.074;2023-09-19T13:33:10;95263.91;;;25.37;100.00
33859;BME280;20156;47.486;12.074;2023-09-19T13:35:37;95256.28;;;25.44;100.00
33859;BME280;20156;47.486;12.074;2023-09-19T13:38:05;95247.63;;;25.79;100.00
33859;BME280;20156;47.486;12.074;2023-09-19T13:40:32;95268.84;;;24.27;100.00